Tennant, Iowa
Current Conditions -  °F | °C
As of 3:35 AM on Thursday 18 Dec 2014 (Local Time) from KHNR Reporting Station
Overcast Overcast  
Wind Chill: 17°   Ceiling: 6500
Heat Index: 25°   Visibility: 10mi
Dew Point: 23°   Wind: 7mph
Humidity: 93%   Direction: 90°E
Pressure: 30.27"   Gusts: NA
Location:  41.6°N, 95.44°W
Report Text: KHNR 180935Z AUTO 09006KT 10SM OVC065 M04/M05 A3027 RMK AO2
Loading
Personal Weather Stations






























Interactive Weather Map New forecast layout! Learn more

10-Day Weather Forecast

Advertisements
Track Severe Weather on mobile